createdAt,value
2022-11-25T00:01:51.938Z,6.40
2022-11-25T00:04:22.394Z,5.30
2022-11-25T00:06:50.592Z,5.60
2022-11-25T00:09:19.569Z,5.60
2022-11-25T00:11:48.073Z,5.33
2022-11-25T00:14:17.985Z,4.27
2022-11-25T00:16:48.805Z,4.90
2022-11-25T00:19:18.162Z,3.80
2022-11-25T00:21:48.149Z,4.50
2022-11-25T00:24:18.082Z,3.70
2022-11-25T00:26:46.756Z,4.03
2022-11-25T00:29:15.412Z,3.63
2022-11-25T00:31:43.952Z,4.57
2022-11-25T00:34:15.498Z,3.70
2022-11-25T00:36:44.257Z,3.20
2022-11-25T00:39:16.821Z,3.40
2022-11-25T00:42:05.908Z,3.13
2022-11-25T00:44:38.743Z,2.60
2022-11-25T00:47:11.498Z,2.80
2022-11-25T00:49:41.817Z,2.40
2022-11-25T00:52:11.566Z,2.73
2022-11-25T00:54:41.718Z,3.00
2022-11-25T00:57:11.546Z,4.03
2022-11-25T00:59:40.397Z,4.90
2022-11-25T01:02:11.644Z,3.90
2022-11-25T01:04:41.906Z,3.53
2022-11-25T01:07:11.135Z,2.83
2022-11-25T01:09:41.317Z,3.43
2022-11-25T01:12:12.278Z,2.50
2022-11-25T01:14:41.471Z,2.17
2022-11-25T01:17:10.146Z,2.23
2022-11-25T01:19:40.813Z,2.70
2022-11-25T01:22:09.552Z,3.20
2022-11-25T01:24:38.540Z,3.30
2022-11-25T01:27:08.892Z,3.37
2022-11-25T01:29:37.697Z,3.70
2022-11-25T01:32:07.561Z,2.10
2022-11-25T01:34:37.858Z,2.27
2022-11-25T01:37:06.803Z,2.33
2022-11-25T01:39:35.526Z,1.97
2022-11-25T01:42:05.493Z,2.40
2022-11-25T01:44:40.327Z,2.07
2022-11-25T01:47:15.632Z,2.50
2022-11-25T01:49:47.988Z,2.00
2022-11-25T01:52:23.278Z,2.03
2022-11-25T01:54:56.157Z,2.10
2022-11-25T01:57:33.138Z,3.20
2022-11-25T02:00:08.440Z,2.57
2022-11-25T02:02:47.181Z,3.00
2022-11-25T02:05:21.670Z,3.60
2022-11-25T02:07:52.556Z,2.90
2022-11-25T02:10:25.574Z,2.83
2022-11-25T02:12:55.202Z,2.67
2022-11-25T02:15:25.486Z,2.50
2022-11-25T02:17:54.477Z,2.60
2022-11-25T02:20:24.937Z,3.00
2022-11-25T02:23:03.539Z,6.00
2022-11-25T02:25:35.600Z,6.17
2022-11-25T02:28:10.666Z,4.60
2022-11-25T02:30:40.532Z,4.90
2022-11-25T02:33:09.352Z,5.37
2022-11-25T02:35:39.824Z,4.60
2022-11-25T02:38:15.554Z,4.60
2022-11-25T02:40:50.585Z,4.13
2022-11-25T02:43:19.700Z,3.63
2022-11-25T02:45:57.186Z,4.20
2022-11-25T02:48:45.801Z,5.70
2022-11-25T02:51:16.931Z,4.10
2022-11-25T02:53:46.994Z,3.80
2022-11-25T02:56:17.952Z,3.83
2022-11-25T02:58:46.611Z,3.77
2022-11-25T03:01:15.340Z,4.17
2022-11-25T03:03:45.655Z,4.70
2022-11-25T03:06:15.594Z,4.80
2022-11-25T03:08:46.164Z,2.80
2022-11-25T03:11:17.691Z,4.73
2022-11-25T03:13:46.087Z,4.00
2022-11-25T03:16:14.855Z,5.00
2022-11-25T03:18:45.717Z,3.70
2022-11-25T03:21:14.336Z,3.30
2022-11-25T03:23:50.075Z,3.50
2022-11-25T03:26:21.687Z,4.60
2022-11-25T03:28:50.722Z,3.67
2022-11-25T03:31:21.355Z,3.00
2022-11-25T03:33:53.607Z,3.57
2022-11-25T03:36:23.673Z,4.03
2022-11-25T03:38:52.987Z,4.00
2022-11-25T03:41:23.081Z,2.67
2022-11-25T03:43:51.848Z,3.00
2022-11-25T03:46:20.864Z,2.80
2022-11-25T03:48:49.574Z,2.57
2022-11-25T03:51:18.493Z,2.17
2022-11-25T03:53:47.421Z,2.50
2022-11-25T03:56:16.929Z,2.10
2022-11-25T03:58:50.062Z,2.47
2022-11-25T04:01:20.133Z,2.73
2022-11-25T04:03:49.086Z,2.67
2022-11-25T04:06:20.397Z,2.53
2022-11-25T04:08:51.098Z,2.40
2022-11-25T04:11:19.598Z,3.03
2022-11-25T04:13:52.902Z,3.20
2022-11-25T04:16:26.751Z,3.33
2022-11-25T04:18:56.548Z,2.90
2022-11-25T04:21:25.605Z,3.23
2022-11-25T04:23:55.015Z,3.80
2022-11-25T04:26:23.740Z,2.70
2022-11-25T04:28:55.688Z,2.70
2022-11-25T04:31:26.016Z,3.13
2022-11-25T04:33:54.568Z,2.57
2022-11-25T04:36:25.967Z,3.17
2022-11-25T04:38:54.681Z,3.03
2022-11-25T04:41:24.294Z,3.77
2022-11-25T04:43:55.419Z,4.00
2022-11-25T04:46:30.410Z,4.40
2022-11-25T04:48:59.258Z,3.40
2022-11-25T04:51:31.373Z,3.70
2022-11-25T04:54:04.211Z,2.70
2022-11-25T04:56:34.202Z,2.93
2022-11-25T04:59:21.339Z,3.40
2022-11-25T05:01:50.095Z,2.77
2022-11-25T05:04:32.218Z,2.70
2022-11-25T05:07:01.842Z,2.90
2022-11-25T05:09:32.989Z,3.27
2022-11-25T05:12:27.479Z,3.90
2022-11-25T05:15:00.440Z,5.27
2022-11-25T05:17:32.857Z,4.00
2022-11-25T05:20:02.493Z,4.37
2022-11-25T05:22:35.449Z,3.90
2022-11-25T05:25:08.892Z,5.50
2022-11-25T05:27:45.123Z,7.57
2022-11-25T05:30:18.153Z,6.67
2022-11-25T05:32:47.787Z,4.10
2022-11-25T05:35:16.634Z,3.40
2022-11-25T05:37:45.927Z,3.10
2022-11-25T05:40:15.755Z,2.60
2022-11-25T05:42:55.704Z,2.87
2022-11-25T05:45:26.269Z,1.53
2022-11-25T05:47:58.927Z,2.63
2022-11-25T05:50:29.250Z,2.43
2022-11-25T05:53:17.939Z,3.20
2022-11-25T05:55:57.861Z,3.80
2022-11-25T05:58:46.113Z,4.00
2022-11-25T06:01:18.118Z,3.57
2022-11-25T06:03:49.643Z,2.70
2022-11-25T06:06:19.626Z,3.10
2022-11-25T06:08:48.335Z,2.47
2022-11-25T06:11:19.892Z,3.00
2022-11-25T06:13:49.000Z,3.07
2022-11-25T06:16:22.393Z,3.70
2022-11-25T06:18:59.124Z,2.87
2022-11-25T06:21:28.184Z,2.30
2022-11-25T06:23:57.545Z,3.10
2022-11-25T06:26:29.583Z,2.10
2022-11-25T06:29:00.901Z,2.87
2022-11-25T06:31:31.301Z,2.00
2022-11-25T06:34:13.930Z,3.37
2022-11-25T06:36:45.801Z,2.50
2022-11-25T06:39:14.992Z,2.57
2022-11-25T06:41:47.202Z,2.30
2022-11-25T06:44:16.106Z,2.87
2022-11-25T06:46:46.416Z,2.90
2022-11-25T06:49:16.373Z,2.80
2022-11-25T06:51:45.135Z,2.77
2022-11-25T06:54:13.520Z,3.03
2022-11-25T06:56:43.202Z,2.03
2022-11-25T06:59:11.646Z,2.40
2022-11-25T07:01:41.543Z,2.90
2022-11-25T07:04:11.623Z,2.90
2022-11-25T07:06:40.197Z,2.40
2022-11-25T07:09:09.347Z,2.87
2022-11-25T07:11:39.616Z,3.00
2022-11-25T07:14:14.156Z,2.67
2022-11-25T07:16:46.462Z,2.77
2022-11-25T07:19:20.532Z,3.07
2022-11-25T07:21:49.549Z,3.00
2022-11-25T07:24:20.877Z,3.00
2022-11-25T07:26:49.602Z,3.33
2022-11-25T07:29:44.351Z,2.70
2022-11-25T07:32:10.809Z,4.60
2022-11-25T07:34:41.328Z,2.63
2022-11-25T07:37:09.763Z,2.90
2022-11-25T07:39:38.783Z,3.37
2022-11-25T07:42:08.940Z,2.30
2022-11-25T07:44:38.555Z,3.00
2022-11-25T07:47:27.352Z,3.40
2022-11-25T07:49:59.645Z,3.20
2022-11-25T07:52:28.437Z,4.30
2022-11-25T07:54:59.475Z,2.80
2022-11-25T07:57:29.181Z,2.87
2022-11-25T07:59:57.848Z,3.20
2022-11-25T08:02:28.548Z,3.70
2022-11-25T08:05:00.703Z,2.40
2022-11-25T08:07:33.445Z,2.20
2022-11-25T08:10:05.569Z,2.90
2022-11-25T08:12:34.968Z,2.37
2022-11-25T08:15:03.811Z,3.40
2022-11-25T08:17:32.495Z,3.13
2022-11-25T08:20:02.794Z,2.80
2022-11-25T08:22:32.207Z,3.10
2022-11-25T08:25:02.219Z,2.63
2022-11-25T08:27:34.172Z,3.07
2022-11-25T08:30:02.886Z,2.93
2022-11-25T08:32:33.667Z,3.63
2022-11-25T08:35:04.200Z,3.60
2022-11-25T08:37:33.167Z,3.43
2022-11-25T08:40:02.200Z,4.07
2022-11-25T08:42:31.711Z,3.13
2022-11-25T08:45:03.517Z,2.40
2022-11-25T08:47:32.772Z,2.27
2022-11-25T08:50:03.951Z,2.50
2022-11-25T08:52:32.656Z,2.93
2022-11-25T08:55:01.216Z,2.87
2022-11-25T08:57:30.174Z,2.43
2022-11-25T09:00:01.889Z,2.37
2022-11-25T09:02:30.449Z,2.57
2022-11-25T09:04:59.271Z,2.30
2022-11-25T09:07:32.001Z,3.07
2022-11-25T09:10:01.558Z,2.30
2022-11-25T09:12:30.605Z,2.10
2022-11-25T09:15:00.766Z,2.03
2022-11-25T09:17:29.349Z,2.00
2022-11-25T09:20:00.435Z,2.47
2022-11-25T09:22:30.947Z,2.23
2022-11-25T09:24:59.998Z,2.20
2022-11-25T09:27:28.962Z,2.40
2022-11-25T09:29:57.433Z,2.20
2022-11-25T09:32:28.674Z,2.60
2022-11-25T09:34:57.264Z,2.20
2022-11-25T09:37:29.534Z,2.60
2022-11-25T09:40:01.934Z,2.23
2022-11-25T09:43:10.245Z,2.60
2022-11-25T09:46:06.130Z,2.90
2022-11-25T09:48:59.966Z,2.50
2022-11-25T09:51:35.651Z,2.43
2022-11-25T09:54:13.066Z,2.90
2022-11-25T09:56:47.405Z,2.20
2022-11-25T09:59:20.831Z,2.60
2022-11-25T10:01:55.727Z,2.73
2022-11-25T10:04:30.536Z,2.33
2022-11-25T10:07:03.533Z,1.90
2022-11-25T10:09:36.330Z,3.00
2022-11-25T10:12:14.734Z,2.30
2022-11-25T10:14:51.797Z,3.00
2022-11-25T10:17:42.753Z,2.50
2022-11-25T10:20:19.499Z,2.70
2022-11-25T10:22:54.572Z,2.20
2022-11-25T10:25:25.341Z,2.30
2022-11-25T10:28:00.101Z,2.37
2022-11-25T10:30:36.054Z,2.83
2022-11-25T10:33:15.913Z,2.80
2022-11-25T10:35:52.678Z,1.80
2022-11-25T10:38:29.532Z,2.10
2022-11-25T10:40:58.330Z,2.93
2022-11-25T10:43:31.990Z,2.47
2022-11-25T10:46:17.113Z,2.30
2022-11-25T10:48:57.347Z,2.23
2022-11-25T10:51:38.093Z,3.00
2022-11-25T10:54:16.756Z,1.90
2022-11-25T10:56:49.827Z,2.13
2022-11-25T10:59:27.863Z,2.10
2022-11-25T11:02:20.787Z,2.70
2022-11-25T11:04:59.895Z,2.00
2022-11-25T11:07:34.929Z,2.10
2022-11-25T11:10:17.954Z,3.00
2022-11-25T11:12:57.206Z,2.90
2022-11-25T11:15:29.303Z,1.90
2022-11-25T11:17:59.411Z,2.90
2022-11-25T11:20:30.424Z,2.27
2022-11-25T11:23:08.856Z,2.00
2022-11-25T11:25:44.733Z,2.43
2022-11-25T11:28:33.014Z,2.57
2022-11-25T11:31:08.152Z,1.80
2022-11-25T11:33:46.565Z,2.10
2022-11-25T11:36:31.532Z,2.07
2022-11-25T11:39:26.523Z,2.73
2022-11-25T11:42:05.252Z,2.40
2022-11-25T11:44:44.219Z,2.07
2022-11-25T11:47:30.590Z,2.17
2022-11-25T11:50:12.317Z,1.80
2022-11-25T11:52:52.328Z,2.50
2022-11-25T11:55:42.145Z,2.00
2022-11-25T11:58:19.231Z,2.83
2022-11-25T12:00:55.708Z,2.60
2022-11-25T12:03:29.117Z,2.53
2022-11-25T12:06:04.924Z,2.10
2022-11-25T12:08:41.169Z,2.57
2022-11-25T12:11:15.939Z,2.47
2022-11-25T12:13:50.907Z,2.87
2022-11-25T12:16:25.953Z,3.50
2022-11-25T12:19:03.257Z,2.20
2022-11-25T12:21:44.299Z,2.10
2022-11-25T12:24:23.520Z,2.23
2022-11-25T12:26:59.211Z,2.63
2022-11-25T12:29:36.833Z,1.80
2022-11-25T12:32:22.505Z,2.17
2022-11-25T12:34:59.851Z,2.87
2022-11-25T12:37:33.421Z,2.30
2022-11-25T12:40:09.746Z,2.57
2022-11-25T12:42:43.451Z,2.07
2022-11-25T12:45:21.924Z,1.87
2022-11-25T12:47:51.258Z,2.13
2022-11-25T12:50:29.952Z,2.93
2022-11-25T12:53:08.659Z,2.43
2022-11-25T12:55:44.167Z,2.20
2022-11-25T12:58:52.460Z,1.90
2022-11-25T13:01:53.974Z,1.50
2022-11-25T13:05:07.638Z,2.90
2022-11-25T13:08:00.557Z,1.90
2022-11-25T13:10:44.888Z,1.60
2022-11-25T13:13:45.684Z,2.10
2022-11-25T13:16:16.170Z,1.73
2022-11-25T13:18:48.143Z,2.07
2022-11-25T13:21:18.684Z,1.97
2022-11-25T13:23:53.671Z,2.23
2022-11-25T13:26:49.938Z,2.17
2022-11-25T13:30:04.190Z,2.37
2022-11-25T13:32:53.833Z,1.77
2022-11-25T13:35:36.287Z,1.60
2022-11-25T13:38:38.333Z,2.10
2022-11-25T13:41:38.556Z,1.70
2022-11-25T13:44:21.967Z,2.27
2022-11-25T13:46:53.115Z,1.90
2022-11-25T13:49:28.326Z,1.40
2022-11-25T13:52:05.575Z,2.10
2022-11-25T13:54:40.367Z,2.20
2022-11-25T13:57:28.614Z,1.77
2022-11-25T14:00:01.402Z,2.47
2022-11-25T14:02:46.424Z,2.27
2022-11-25T14:05:47.183Z,1.90
2022-11-25T14:08:29.200Z,1.87
2022-11-25T14:11:24.684Z,1.93
2022-11-25T14:14:32.116Z,2.60
2022-11-25T14:17:21.038Z,4.20
2022-11-25T14:20:08.688Z,3.53
2022-11-25T14:23:08.936Z,3.20
2022-11-25T14:25:49.701Z,3.03
2022-11-25T14:28:30.748Z,4.20
2022-11-25T14:31:08.325Z,3.77
2022-11-25T14:33:49.733Z,15.17
2022-11-25T14:36:24.787Z,10.67
2022-11-25T14:38:59.802Z,10.00
2022-11-25T14:41:37.596Z,9.50
2022-11-25T14:44:15.329Z,16.83
2022-11-25T14:46:54.371Z,7.90
2022-11-25T14:52:22.029Z,2.80
2022-11-25T14:54:53.034Z,3.20
2022-11-25T14:57:23.928Z,2.30
2022-11-25T14:59:54.745Z,3.10
2022-11-25T15:02:31.346Z,1.77
2022-11-25T15:05:17.307Z,2.30
2022-11-25T15:07:58.178Z,2.00
2022-11-25T15:10:32.327Z,2.70
2022-11-25T15:13:06.385Z,2.27
2022-11-25T15:15:35.130Z,3.33
2022-11-25T15:18:10.317Z,2.30
2022-11-25T15:20:42.242Z,2.20
2022-11-25T15:23:17.029Z,2.63
2022-11-25T15:25:52.449Z,2.10
2022-11-25T15:28:21.912Z,2.33
2022-11-25T15:31:03.950Z,2.23
2022-11-25T15:33:35.387Z,2.60
2022-11-25T15:36:06.588Z,2.23
2022-11-25T15:38:43.061Z,2.30
2022-11-25T15:41:22.684Z,1.87
2022-11-25T15:43:54.579Z,3.30
2022-11-25T15:46:34.866Z,3.40
2022-11-25T15:49:11.584Z,3.40
2022-11-25T15:51:44.739Z,2.10
2022-11-25T15:54:23.582Z,3.00
2022-11-25T15:56:54.575Z,2.30
2022-11-25T15:59:50.850Z,4.50
2022-11-25T16:02:51.278Z,1.90
2022-11-25T16:05:33.182Z,3.57
2022-11-25T16:08:23.814Z,4.33
2022-11-25T16:10:59.313Z,1.57
2022-11-25T16:13:41.037Z,2.43
2022-11-25T16:16:29.059Z,3.80
2022-11-25T16:19:16.129Z,4.13
2022-11-25T16:21:56.111Z,3.70
2022-11-25T16:24:47.807Z,2.53
2022-11-25T16:27:20.632Z,1.90
2022-11-25T16:29:56.933Z,2.40
2022-11-25T16:32:27.988Z,5.10
2022-11-25T16:34:57.950Z,2.33
2022-11-25T16:37:30.894Z,4.40
2022-11-25T16:39:59.477Z,5.00
2022-11-25T16:42:28.336Z,3.07
2022-11-25T16:44:57.230Z,2.57
2022-11-25T16:47:27.833Z,4.00
2022-11-25T16:49:56.256Z,2.00
2022-11-25T16:52:28.476Z,3.73
2022-11-25T16:54:58.522Z,4.33
2022-11-25T16:57:34.046Z,6.03
2022-11-25T17:00:08.690Z,4.33
2022-11-25T17:02:37.788Z,3.80
2022-11-25T17:05:21.040Z,5.90
2022-11-25T17:07:51.862Z,7.87
2022-11-25T17:10:24.507Z,10.90
2022-11-25T17:12:54.928Z,10.90
2022-11-25T17:15:31.652Z,6.67
2022-11-25T17:18:00.771Z,10.27
2022-11-25T17:20:30.179Z,8.00
2022-11-25T17:23:04.766Z,4.00
2022-11-25T17:25:38.858Z,4.13
2022-11-25T17:28:07.730Z,3.37
2022-11-25T17:30:42.394Z,2.97
2022-11-25T17:33:16.722Z,2.20
2022-11-25T17:35:48.373Z,3.10
2022-11-25T17:38:20.413Z,2.50
2022-11-25T17:40:51.841Z,2.50
2022-11-25T17:43:23.340Z,1.80
2022-11-25T17:45:53.519Z,2.23
2022-11-25T17:48:23.531Z,2.80
2022-11-25T17:50:52.678Z,2.23
2022-11-25T17:53:21.714Z,3.17
2022-11-25T17:55:53.529Z,2.93
2022-11-25T17:58:22.776Z,2.80
2022-11-25T18:00:54.140Z,2.33
2022-11-25T18:03:23.356Z,2.97
2022-11-25T18:05:56.194Z,2.73
2022-11-25T18:08:27.941Z,2.50
2022-11-25T18:11:01.785Z,3.70
2022-11-25T18:13:38.454Z,8.80
2022-11-25T18:16:12.316Z,5.87
2022-11-25T18:18:42.298Z,4.37
2022-11-25T18:21:12.576Z,3.60
2022-11-25T18:23:43.259Z,5.43
2022-11-25T18:26:13.850Z,4.70
2022-11-25T18:28:42.631Z,4.30
2022-11-25T18:31:14.874Z,3.17
2022-11-25T18:33:44.079Z,3.30
2022-11-25T18:36:17.169Z,2.90
2022-11-25T18:38:48.638Z,3.17
2022-11-25T18:41:24.015Z,3.53
2022-11-25T18:43:52.819Z,3.13
2022-11-25T18:46:25.083Z,2.70
2022-11-25T18:48:54.692Z,3.17
2022-11-25T18:51:24.856Z,4.20
2022-11-25T18:53:56.468Z,2.50
2022-11-25T18:56:27.806Z,2.67
2022-11-25T18:59:00.156Z,2.70
2022-11-25T19:01:29.550Z,2.67
2022-11-25T19:04:01.437Z,2.50
2022-11-25T19:06:35.405Z,3.03
2022-11-25T19:09:05.692Z,3.40
2022-11-25T19:11:40.692Z,2.53
2022-11-25T19:14:15.386Z,2.60
2022-11-25T19:16:45.340Z,2.37
2022-11-25T19:19:15.693Z,2.80
2022-11-25T19:21:44.662Z,2.83
2022-11-25T19:24:16.925Z,2.90
2022-11-25T19:26:56.535Z,2.03
2022-11-25T19:29:38.786Z,4.10
2022-11-25T19:32:19.981Z,2.53
2022-11-25T19:34:52.453Z,2.20
2022-11-25T19:37:23.042Z,2.10
2022-11-25T19:39:52.928Z,2.20
2022-11-25T19:42:25.014Z,2.17
2022-11-25T19:44:54.958Z,2.77
2022-11-25T19:47:26.280Z,2.17
2022-11-25T19:49:59.530Z,2.70
2022-11-25T19:52:36.005Z,2.47
2022-11-25T19:55:14.885Z,3.53
2022-11-25T19:57:45.202Z,3.07
2022-11-25T20:00:17.083Z,3.10
2022-11-25T20:02:47.715Z,2.73
2022-11-25T20:05:20.330Z,3.10
2022-11-25T20:07:49.877Z,3.27
2022-11-25T20:10:22.951Z,3.67
2022-11-25T20:12:53.966Z,3.23
2022-11-25T20:15:24.286Z,3.40
2022-11-25T20:17:55.842Z,3.67
2022-11-25T20:20:28.717Z,4.30
2022-11-25T20:23:02.685Z,2.97
2022-11-25T20:25:31.547Z,2.50
2022-11-25T20:28:01.448Z,2.60
2022-11-25T20:30:31.467Z,3.60
2022-11-25T20:33:01.534Z,2.90
2022-11-25T20:35:31.523Z,3.13
2022-11-25T20:38:01.531Z,3.30
2022-11-25T20:40:40.086Z,3.07
2022-11-25T20:43:19.384Z,2.70
2022-11-25T20:45:48.339Z,2.63
2022-11-25T20:48:19.223Z,2.27
2022-11-25T20:50:50.763Z,2.43
2022-11-25T20:53:22.120Z,2.10
2022-11-25T20:55:52.275Z,2.20
2022-11-25T20:58:26.567Z,2.13
2022-11-25T21:00:57.727Z,2.00
2022-11-25T21:03:30.751Z,2.03
2022-11-25T21:06:01.755Z,2.60
2022-11-25T21:08:32.346Z,2.80
2022-11-25T21:11:00.883Z,2.03
2022-11-25T21:13:33.276Z,2.30
2022-11-25T21:16:01.778Z,2.73
2022-11-25T21:18:30.371Z,2.40
2022-11-25T21:20:59.217Z,2.70
2022-11-25T21:23:33.482Z,2.83
2022-11-25T21:26:07.187Z,2.20
2022-11-25T21:28:42.119Z,2.17
2022-11-25T21:31:16.652Z,2.20
2022-11-25T21:33:45.847Z,2.03
2022-11-25T21:36:20.739Z,2.50
2022-11-25T21:38:54.089Z,2.53
2022-11-25T21:41:24.822Z,2.40
2022-11-25T21:43:55.769Z,2.67
2022-11-25T21:46:26.355Z,2.67
2022-11-25T21:48:55.515Z,2.60
2022-11-25T21:51:26.514Z,2.70
2022-11-25T21:53:58.286Z,2.40
2022-11-25T21:56:29.869Z,3.03
2022-11-25T21:59:02.648Z,2.00
2022-11-25T22:01:32.450Z,3.40
2022-11-25T22:04:02.118Z,3.90
2022-11-25T22:06:32.342Z,3.67
2022-11-25T22:09:01.038Z,3.87
2022-11-25T22:11:34.633Z,4.00
2022-11-25T22:14:08.326Z,3.43
2022-11-25T22:16:38.176Z,3.67
2022-11-25T22:19:09.920Z,3.23
2022-11-25T22:21:41.306Z,3.53
2022-11-25T22:24:15.372Z,2.47
2022-11-25T22:26:48.096Z,3.50
2022-11-25T22:29:27.155Z,2.70
2022-11-25T22:31:56.240Z,2.67
2022-11-25T22:34:25.651Z,3.23
2022-11-25T22:36:54.007Z,3.10
2022-11-25T22:39:26.709Z,2.87
2022-11-25T22:41:58.703Z,2.87
2022-11-25T22:44:33.525Z,2.83
2022-11-25T22:47:02.155Z,3.20
2022-11-25T22:49:35.791Z,4.00
2022-11-25T22:52:04.752Z,4.17
2022-11-25T22:54:34.808Z,4.03
2022-11-25T22:57:03.411Z,3.10
2022-11-25T22:59:34.137Z,3.60
2022-11-25T23:02:03.002Z,2.93
2022-11-25T23:04:31.799Z,3.30
2022-11-25T23:07:00.333Z,2.83
2022-11-25T23:09:30.548Z,3.40
2022-11-25T23:11:59.194Z,4.13
2022-11-25T23:14:27.327Z,4.47
2022-11-25T23:17:00.826Z,5.30
2022-11-25T23:19:30.809Z,4.80
2022-11-25T23:22:00.961Z,4.50
2022-11-25T23:24:29.514Z,3.83
2022-11-25T23:27:02.649Z,5.63
2022-11-25T23:29:31.484Z,6.30
2022-11-25T23:32:04.114Z,6.90
2022-11-25T23:34:34.924Z,6.50
2022-11-25T23:37:03.418Z,11.17
2022-11-25T23:39:33.139Z,6.87
2022-11-25T23:42:02.899Z,6.73
2022-11-25T23:44:32.737Z,7.30
2022-11-25T23:47:04.879Z,6.83
2022-11-25T23:49:37.551Z,6.40
2022-11-25T23:52:10.566Z,7.90
2022-11-25T23:54:42.538Z,8.30
2022-11-25T23:57:16.346Z,8.47
2022-11-25T23:59:47.033Z,8.70
